Terminal Aerodrome Forecast
Issued by NWS Brownsville, TX

Home | Current Version | Previous Version | Text Only | Print | Product List | Glossary On
Versions: 1 2 3 4 5 6 7 8 9 10 11 12 13 14 15 16 17 18 19 20
000
FTUS44 KBRO 030523
TAFHRL
TAF
KHRL 030523Z 0306/0406 VRB03KT 3/4SM BR VV002
     FM031500 16008KT P6SM BKN010
     FM031700 17023G30KT P6SM BKN030
     FM040000 15015G20KT 6SM BR BKN015=

USA.gov is the U.S. government's official web portal to all federal, state and local government web resources and services.